CheckWX is a tool to help pilots better visualize weather data.  It is not intended as a substitute for an official pre-flight weather briefing.

13:40:03 UTC

CYMJ METAR
Moose Jaw Air Vice Marshal C. M. McEwen Airport
Moose Jaw, Canada
Current

17 hours ago

CYMJ 192107Z 28022G31KT 15SM FEW060 FEW090 22/07 A2972 RMK CF2AC1 LAST OBS / NXT 211800 UTC SLP067
Observed
Jul-19 @ 21:07 UTC
Wind
  • 280° at 22 KTS
  • Gusting to 31 KTS
Visibility
15 SM
Flight Rules
VFR
Cloud Levels
  • Few at 6,000' AGL
  • Few at 9,000' AGL
Temperature
22°C / 72°F
Dewpoint
C / 45°F
Humidity
38%
Altimeter
29.72" Hg
Pressure
1006.42 hPa
Previous

18 hours ago

CYMJ 192000Z 30026G33KT 15SM FEW060 FEW090 22/08 A2970 RMK CF2AC1 SLP062
Observed
Jul-19 @ 20:00 UTC
Wind
  • 300° at 26 KTS
  • Gusting to 33 KTS
Visibility
15 SM
Flight Rules
VFR
Cloud Levels
  • Few at 6,000' AGL
  • Few at 9,000' AGL
Temperature
22°C / 72°F
Dewpoint
C / 46°F
Humidity
41%
Altimeter
29.7" Hg
Pressure
1005.72 hPa
Previous

19 hours ago

CYMJ 191900Z 28021G33KT 15SM FEW055 SCT090 21/07 A2969 RMK CF2AC1 SLP060
Observed
Jul-19 @ 19:00 UTC
Wind
  • 280° at 21 KTS
  • Gusting to 33 KTS
Visibility
15 SM
Flight Rules
VFR
Cloud Levels
  • Few at 5,500' AGL
  • Scattered at 9,000' AGL
Temperature
21°C / 70°F
Dewpoint
C / 45°F
Humidity
40%
Altimeter
29.69" Hg
Pressure
1005.42 hPa